createdAt,value
2023-04-26T00:01:40.060Z,1.60
2023-04-26T00:04:25.883Z,1.60
2023-04-26T00:07:13.508Z,1.58
2023-04-26T00:09:58.980Z,1.83
2023-04-26T00:12:44.456Z,1.52
2023-04-26T00:15:29.812Z,1.75
2023-04-26T00:18:15.359Z,1.88
2023-04-26T00:21:00.709Z,1.77
2023-04-26T00:23:46.211Z,1.90
2023-04-26T00:26:32.076Z,2.10
2023-04-26T00:29:17.021Z,1.77
2023-04-26T00:32:02.846Z,1.75
2023-04-26T00:34:48.924Z,1.52
2023-04-26T00:37:36.610Z,1.85
2023-04-26T00:40:21.990Z,1.58
2023-04-26T00:43:07.550Z,1.52
2023-04-26T00:45:53.576Z,1.52
2023-04-26T00:48:39.558Z,1.45
2023-04-26T00:51:25.013Z,1.80
2023-04-26T00:54:11.216Z,1.48
2023-04-26T00:56:57.164Z,1.40
2023-04-26T00:59:42.450Z,1.42
2023-04-26T01:02:28.564Z,1.60
2023-04-26T01:05:14.743Z,1.25
2023-04-26T01:08:04.646Z,1.60
2023-04-26T01:10:50.453Z,1.35
2023-04-26T01:13:37.530Z,1.38
2023-04-26T01:16:24.033Z,1.23
2023-04-26T01:19:13.440Z,1.10
2023-04-26T01:21:58.650Z,1.20
2023-04-26T01:24:46.055Z,1.25
2023-04-26T01:27:31.648Z,1.23
2023-04-26T01:30:16.814Z,1.10
2023-04-26T01:33:02.335Z,1.20
2023-04-26T01:35:47.801Z,1.10
2023-04-26T01:38:33.310Z,1.30
2023-04-26T01:41:18.868Z,1.73
2023-04-26T01:44:04.661Z,1.48
2023-04-26T01:46:50.010Z,1.27
2023-04-26T01:49:36.005Z,1.33
2023-04-26T01:52:22.586Z,1.15
2023-04-26T01:55:08.734Z,1.30
2023-04-26T01:57:53.852Z,1.35
2023-04-26T02:00:39.310Z,1.25
2023-04-26T02:03:25.251Z,1.30
2023-04-26T02:06:10.956Z,1.33
2023-04-26T02:08:56.995Z,1.00
2023-04-26T02:11:42.500Z,1.00
2023-04-26T02:14:27.826Z,1.25
2023-04-26T02:17:14.799Z,1.30
2023-04-26T02:20:00.308Z,1.23
2023-04-26T02:22:46.104Z,1.20
2023-04-26T02:25:33.877Z,1.50
2023-04-26T02:28:18.894Z,1.48
2023-04-26T02:31:04.501Z,1.40
2023-04-26T02:33:49.804Z,1.27
2023-04-26T02:36:35.775Z,1.30
2023-04-26T02:39:21.248Z,1.60
2023-04-26T02:42:12.952Z,1.48
2023-04-26T02:44:59.216Z,1.75
2023-04-26T02:47:44.982Z,1.60
2023-04-26T02:50:31.038Z,1.30
2023-04-26T02:53:17.828Z,1.45
2023-04-26T02:56:03.024Z,1.20
2023-04-26T02:58:48.280Z,1.60
2023-04-26T03:01:34.590Z,1.55
2023-04-26T03:04:20.549Z,1.90
2023-04-26T03:07:06.141Z,1.77
2023-04-26T03:09:51.899Z,1.88
2023-04-26T03:12:37.487Z,2.17
2023-04-26T03:15:22.887Z,1.63
2023-04-26T03:18:08.238Z,1.90
2023-04-26T03:20:53.580Z,1.60
2023-04-26T03:23:39.551Z,1.70
2023-04-26T03:26:25.830Z,1.63
2023-04-26T03:29:12.453Z,2.10
2023-04-26T03:31:57.868Z,2.03
2023-04-26T03:34:43.445Z,1.75
2023-04-26T03:37:28.986Z,1.55
2023-04-26T03:40:21.523Z,2.60
2023-04-26T03:43:06.906Z,2.30
2023-04-26T03:45:52.827Z,2.30
2023-04-26T03:48:38.509Z,2.45
2023-04-26T03:51:23.795Z,2.10
2023-04-26T03:54:11.135Z,2.47
2023-04-26T03:56:57.013Z,2.17
2023-04-26T03:59:43.217Z,1.95
2023-04-26T04:02:28.852Z,1.98
2023-04-26T04:05:14.668Z,2.00
2023-04-26T04:08:00.838Z,1.73
2023-04-26T04:10:46.398Z,2.17
2023-04-26T04:13:32.257Z,2.08
2023-04-26T04:16:17.719Z,1.58
2023-04-26T04:19:03.807Z,2.10
2023-04-26T04:21:49.354Z,2.25
2023-04-26T04:24:34.954Z,2.00
2023-04-26T04:27:21.217Z,2.13
2023-04-26T04:30:08.714Z,2.17
2023-04-26T04:32:54.527Z,2.20
2023-04-26T04:35:41.771Z,1.90
2023-04-26T04:38:26.982Z,1.80
2023-04-26T04:41:12.453Z,1.80
2023-04-26T04:43:57.917Z,1.75
2023-04-26T04:46:44.440Z,1.88
2023-04-26T04:49:31.430Z,1.70
2023-04-26T04:52:19.068Z,1.70
2023-04-26T04:55:05.086Z,1.75
2023-04-26T04:57:51.658Z,1.75
2023-04-26T05:00:38.711Z,1.65
2023-04-26T05:03:36.624Z,1.38
2023-04-26T05:06:22.418Z,1.67
2023-04-26T05:09:09.352Z,1.90
2023-04-26T05:11:56.657Z,1.70
2023-04-26T05:14:42.346Z,2.10
2023-04-26T05:17:28.095Z,1.92
2023-04-26T05:20:14.787Z,1.88
2023-04-26T05:23:00.980Z,1.52
2023-04-26T05:25:46.522Z,1.70
2023-04-26T05:28:50.644Z,1.83
2023-04-26T05:31:42.652Z,1.70
2023-04-26T05:34:38.966Z,1.92
2023-04-26T05:37:24.082Z,1.60
2023-04-26T05:40:12.291Z,1.55
2023-04-26T05:42:58.892Z,1.50
2023-04-26T05:45:56.836Z,1.80
2023-04-26T05:48:43.548Z,1.55
2023-04-26T05:51:29.014Z,1.80
2023-04-26T05:54:14.319Z,1.90
2023-04-26T05:56:59.965Z,1.80
2023-04-26T05:59:47.108Z,1.55
2023-04-26T06:02:32.849Z,1.70
2023-04-26T06:05:19.046Z,2.03
2023-04-26T06:08:04.557Z,1.73
2023-04-26T06:10:49.930Z,1.67
2023-04-26T06:13:35.245Z,1.70
2023-04-26T06:16:22.586Z,1.70
2023-04-26T06:19:08.157Z,1.67
2023-04-26T06:21:55.312Z,1.35
2023-04-26T06:24:40.927Z,1.08
2023-04-26T06:27:26.464Z,1.10
2023-04-26T06:30:12.934Z,1.10
2023-04-26T06:33:02.404Z,1.10
2023-04-26T06:35:49.309Z,0.85
2023-04-26T06:38:34.633Z,1.20
2023-04-26T06:41:22.109Z,1.00
2023-04-26T06:44:07.678Z,0.82
2023-04-26T06:46:56.216Z,0.80
2023-04-26T06:49:42.394Z,0.90
2023-04-26T06:52:29.917Z,0.80
2023-04-26T06:55:14.985Z,0.88
2023-04-26T06:58:00.794Z,1.08
2023-04-26T07:00:46.311Z,0.95
2023-04-26T07:03:32.530Z,1.30
2023-04-26T07:06:18.227Z,1.50
2023-04-26T07:09:04.370Z,1.35
2023-04-26T07:11:49.646Z,1.70
2023-04-26T07:14:39.441Z,1.48
2023-04-26T07:17:24.866Z,1.45
2023-04-26T07:20:10.585Z,1.75
2023-04-26T07:22:55.925Z,1.33
2023-04-26T07:25:41.373Z,1.70
2023-04-26T07:28:27.102Z,1.95
2023-04-26T07:31:12.593Z,1.48
2023-04-26T07:33:58.664Z,1.40
2023-04-26T07:36:44.286Z,1.58
2023-04-26T07:39:29.532Z,1.48
2023-04-26T07:42:15.434Z,1.30
2023-04-26T07:45:00.929Z,1.40
2023-04-26T07:47:46.332Z,1.48
2023-04-26T07:50:32.174Z,1.65
2023-04-26T07:53:17.592Z,1.50
2023-04-26T07:56:10.552Z,1.33
2023-04-26T07:58:56.165Z,1.50
2023-04-26T08:01:41.597Z,1.35
2023-04-26T08:04:35.283Z,1.20
2023-04-26T08:07:21.536Z,1.40
2023-04-26T08:10:07.500Z,1.15
2023-04-26T08:12:53.278Z,1.20
2023-04-26T08:15:38.436Z,1.20
2023-04-26T08:18:23.894Z,1.20
2023-04-26T08:21:09.263Z,1.23
2023-04-26T08:23:54.892Z,1.48
2023-04-26T08:26:41.147Z,1.10
2023-04-26T08:29:27.901Z,1.23
2023-04-26T08:32:13.065Z,1.25
2023-04-26T08:34:58.384Z,1.40
2023-04-26T08:37:43.839Z,1.00
2023-04-26T08:40:29.222Z,1.10
2023-04-26T08:43:16.994Z,1.25
2023-04-26T08:46:06.073Z,1.00
2023-04-26T08:49:04.879Z,0.90
2023-04-26T08:51:51.343Z,1.00
2023-04-26T08:54:37.895Z,0.70
2023-04-26T08:57:24.505Z,0.98
2023-04-26T09:00:13.543Z,1.10
2023-04-26T09:02:58.899Z,0.95
2023-04-26T09:05:45.128Z,1.02
2023-04-26T09:08:30.498Z,1.17
2023-04-26T09:11:15.772Z,1.00
2023-04-26T09:14:01.226Z,1.00
2023-04-26T09:16:46.501Z,0.77
2023-04-26T09:19:44.532Z,1.20
2023-04-26T09:22:35.603Z,1.10
2023-04-26T09:25:31.969Z,1.10
2023-04-26T09:28:22.398Z,1.20
2023-04-26T09:31:08.160Z,0.80
2023-04-26T09:34:00.290Z,0.73
2023-04-26T09:39:42.479Z,0.88
2023-04-26T09:42:28.002Z,0.60
2023-04-26T09:45:13.924Z,0.70
2023-04-26T09:48:17.437Z,0.80
2023-04-26T09:51:14.612Z,0.90
2023-04-26T09:53:59.810Z,1.10
2023-04-26T09:56:59.638Z,0.90
2023-04-26T09:59:55.433Z,0.90
2023-04-26T10:02:41.400Z,1.00
2023-04-26T10:05:27.129Z,0.90
2023-04-26T10:08:12.561Z,1.20
2023-04-26T10:10:58.011Z,1.00
2023-04-26T10:13:44.714Z,0.90
2023-04-26T10:16:30.828Z,0.90
2023-04-26T10:19:16.302Z,0.85
2023-04-26T10:22:08.263Z,0.80
2023-04-26T10:24:55.872Z,0.70
2023-04-26T10:27:44.583Z,1.02
2023-04-26T10:30:29.975Z,0.88
2023-04-26T10:33:16.539Z,0.80
2023-04-26T10:36:13.853Z,0.70
2023-04-26T10:39:24.773Z,0.70
2023-04-26T10:42:27.737Z,0.80
2023-04-26T10:45:27.953Z,1.10
2023-04-26T10:48:30.747Z,0.82
2023-04-26T10:51:16.120Z,1.00
2023-04-26T10:54:02.042Z,1.25
2023-04-26T10:56:47.149Z,0.90
2023-04-26T10:59:43.296Z,1.05
2023-04-26T11:02:55.892Z,1.00
2023-04-26T11:05:48.759Z,1.10
2023-04-26T11:08:36.499Z,1.30
2023-04-26T11:11:26.318Z,1.15
2023-04-26T11:14:19.681Z,1.35
2023-04-26T11:17:11.918Z,1.20
2023-04-26T11:19:57.362Z,1.08
2023-04-26T11:22:42.588Z,1.00
2023-04-26T11:25:29.697Z,0.98
2023-04-26T11:28:15.306Z,1.00
2023-04-26T11:31:01.887Z,1.10
2023-04-26T11:33:49.235Z,0.85
2023-04-26T11:36:38.091Z,0.70
2023-04-26T11:39:23.639Z,0.95
2023-04-26T11:42:10.908Z,0.98
2023-04-26T11:44:57.438Z,0.70
2023-04-26T11:47:44.133Z,0.90
2023-04-26T11:50:32.081Z,0.90
2023-04-26T11:53:17.812Z,0.75
2023-04-26T11:56:03.780Z,0.80
2023-04-26T11:58:53.489Z,0.90
2023-04-26T12:01:39.174Z,0.90
2023-04-26T12:04:31.442Z,0.77
2023-04-26T12:07:19.874Z,1.25
2023-04-26T12:10:31.031Z,1.08
2023-04-26T12:13:16.360Z,0.93
2023-04-26T12:18:59.394Z,0.85
2023-04-26T12:21:44.628Z,0.95
2023-04-26T12:24:36.549Z,1.10
2023-04-26T12:27:22.006Z,0.90
2023-04-26T12:30:07.901Z,1.10
2023-04-26T12:32:54.358Z,1.13
2023-04-26T12:35:43.286Z,0.80
2023-04-26T12:38:28.669Z,0.90
2023-04-26T12:41:14.217Z,0.98
2023-04-26T12:43:59.592Z,1.00
2023-04-26T12:46:45.877Z,0.80
2023-04-26T12:49:31.618Z,1.30
2023-04-26T12:52:16.571Z,1.23
2023-04-26T12:55:02.103Z,1.00
2023-04-26T12:57:47.616Z,0.70
2023-04-26T13:00:33.210Z,1.20
2023-04-26T13:03:18.933Z,1.10
2023-04-26T13:06:04.479Z,0.90
2023-04-26T13:08:50.508Z,0.90
2023-04-26T13:11:35.902Z,0.90
2023-04-26T13:14:23.145Z,0.95
2023-04-26T13:17:09.294Z,1.05
2023-04-26T13:19:55.121Z,0.90
2023-04-26T13:22:42.386Z,1.02
2023-04-26T13:25:27.567Z,1.00
2023-04-26T13:28:13.745Z,1.30
2023-04-26T13:30:59.576Z,1.20
2023-04-26T13:33:47.349Z,0.90
2023-04-26T13:36:32.816Z,0.93
2023-04-26T13:39:18.300Z,1.00
2023-04-26T13:42:05.442Z,1.00
2023-04-26T13:44:51.602Z,1.02
2023-04-26T13:47:37.478Z,0.80
2023-04-26T13:50:22.874Z,1.20
2023-04-26T13:53:08.297Z,0.95
2023-04-26T13:55:53.672Z,0.95
2023-04-26T13:58:40.299Z,0.82
2023-04-26T14:01:26.181Z,0.80
2023-04-26T14:04:12.261Z,0.98
2023-04-26T14:06:57.293Z,0.85
2023-04-26T14:09:42.710Z,0.70
2023-04-26T14:12:29.281Z,0.75
2023-04-26T14:15:15.132Z,0.85
2023-04-26T14:18:00.518Z,0.70
2023-04-26T14:20:46.590Z,0.90
2023-04-26T14:23:31.926Z,0.93
2023-04-26T14:26:17.501Z,0.88
2023-04-26T14:29:03.123Z,0.80
2023-04-26T14:31:48.612Z,1.00
2023-04-26T14:34:38.995Z,0.98
2023-04-26T14:37:24.075Z,1.00
2023-04-26T14:40:09.869Z,1.08
2023-04-26T14:42:55.552Z,1.17
2023-04-26T14:45:45.083Z,1.20
2023-04-26T14:48:30.773Z,1.10
2023-04-26T14:51:16.246Z,1.10
2023-04-26T14:54:01.785Z,1.10
2023-04-26T14:56:47.092Z,1.10
2023-04-26T14:59:32.137Z,1.10
2023-04-26T15:02:17.827Z,1.20
2023-04-26T15:05:03.741Z,1.02
2023-04-26T15:07:48.834Z,1.30
2023-04-26T15:10:35.996Z,1.50
2023-04-26T15:13:21.311Z,1.30
2023-04-26T15:16:08.145Z,1.33
2023-04-26T15:18:53.708Z,1.25
2023-04-26T15:21:39.103Z,1.20
2023-04-26T15:24:24.525Z,1.33
2023-04-26T15:27:10.359Z,1.10
2023-04-26T15:29:56.682Z,1.30
2023-04-26T15:32:42.496Z,1.20
2023-04-26T15:35:28.168Z,1.40
2023-04-26T15:38:13.578Z,1.40
2023-04-26T15:40:58.839Z,1.50
2023-04-26T15:43:44.387Z,1.27
2023-04-26T15:46:29.683Z,1.20
2023-04-26T15:49:15.277Z,1.40
2023-04-26T15:52:00.469Z,1.38
2023-04-26T15:54:45.930Z,1.38
2023-04-26T15:57:31.443Z,1.38
2023-04-26T16:00:17.701Z,1.65
2023-04-26T16:03:03.659Z,1.50
2023-04-26T16:05:49.746Z,1.40
2023-04-26T16:08:40.317Z,1.20
2023-04-26T16:11:26.542Z,1.33
2023-04-26T16:14:11.830Z,1.50
2023-04-26T16:17:00.638Z,1.33
2023-04-26T16:19:46.391Z,1.40
2023-04-26T16:22:32.584Z,1.30
2023-04-26T16:25:18.010Z,1.30
2023-04-26T16:28:03.469Z,1.35
2023-04-26T16:30:49.402Z,1.40
2023-04-26T16:33:34.987Z,1.15
2023-04-26T16:36:20.614Z,1.20
2023-04-26T16:39:07.568Z,1.80
2023-04-26T16:41:54.097Z,1.30
2023-04-26T16:44:40.315Z,1.38
2023-04-26T16:47:26.735Z,1.65
2023-04-26T16:50:11.963Z,1.42
2023-04-26T16:52:57.403Z,1.70
2023-04-26T16:55:42.550Z,1.63
2023-04-26T16:58:28.071Z,1.80
2023-04-26T17:01:13.608Z,1.50
2023-04-26T17:03:59.165Z,1.50
2023-04-26T17:06:45.807Z,1.45
2023-04-26T17:09:31.016Z,1.40
2023-04-26T17:12:16.363Z,1.67
2023-04-26T17:15:04.350Z,1.92
2023-04-26T17:17:50.777Z,2.20
2023-04-26T17:20:36.515Z,1.80
2023-04-26T17:23:21.989Z,1.73
2023-04-26T17:26:07.471Z,1.95
2023-04-26T17:28:53.762Z,1.80
2023-04-26T17:31:38.940Z,2.05
2023-04-26T17:34:24.328Z,2.00
2023-04-26T17:37:09.700Z,1.73
2023-04-26T17:39:55.067Z,2.00
2023-04-26T17:42:40.724Z,1.95
2023-04-26T17:45:26.125Z,1.90
2023-04-26T17:48:13.249Z,2.10
2023-04-26T17:50:59.105Z,2.00
2023-04-26T17:53:44.556Z,1.80
2023-04-26T17:56:30.406Z,1.90
2023-04-26T17:59:15.569Z,1.80
2023-04-26T18:02:04.056Z,1.65
2023-04-26T18:04:49.970Z,1.58
2023-04-26T18:07:35.992Z,1.92
2023-04-26T18:10:21.874Z,1.58
2023-04-26T18:13:07.168Z,1.60
2023-04-26T18:15:54.837Z,1.77
2023-04-26T18:18:40.181Z,1.55
2023-04-26T18:21:26.473Z,1.50
2023-04-26T18:24:11.960Z,1.25
2023-04-26T18:26:57.452Z,1.33
2023-04-26T18:29:43.045Z,1.48
2023-04-26T18:32:28.429Z,1.20
2023-04-26T18:35:13.977Z,1.42
2023-04-26T18:37:59.485Z,1.40
2023-04-26T18:40:46.268Z,1.70
2023-04-26T18:43:31.739Z,1.60
2023-04-26T18:46:17.167Z,1.40
2023-04-26T18:49:02.629Z,1.90
2023-04-26T18:51:47.902Z,1.50
2023-04-26T18:54:33.553Z,1.50
2023-04-26T18:57:22.133Z,1.77
2023-04-26T19:00:08.394Z,1.60
2023-04-26T19:02:54.684Z,1.55
2023-04-26T19:05:43.466Z,1.55
2023-04-26T19:08:28.982Z,1.30
2023-04-26T19:11:14.370Z,1.77
2023-04-26T19:13:59.793Z,1.92
2023-04-26T19:16:45.524Z,2.20
2023-04-26T19:19:30.828Z,2.05
2023-04-26T19:22:16.338Z,1.80
2023-04-26T19:25:02.243Z,1.88
2023-04-26T19:27:47.758Z,1.50
2023-04-26T19:30:33.005Z,1.70
2023-04-26T19:33:18.417Z,1.58
2023-04-26T19:36:04.114Z,2.70
2023-04-26T19:38:49.678Z,3.05
2023-04-26T19:41:35.043Z,2.47
2023-04-26T19:44:20.515Z,2.40
2023-04-26T19:47:06.725Z,2.50
2023-04-26T19:49:54.038Z,2.30
2023-04-26T19:52:39.598Z,2.20
2023-04-26T19:55:26.683Z,2.13
2023-04-26T19:58:13.333Z,2.15
2023-04-26T20:00:58.936Z,2.30
2023-04-26T20:03:44.371Z,2.53
2023-04-26T20:06:30.118Z,3.80
2023-04-26T20:09:16.692Z,3.38
2023-04-26T20:12:01.886Z,2.80
2023-04-26T20:14:49.547Z,3.00
2023-04-26T20:17:35.177Z,3.20
2023-04-26T20:20:20.569Z,3.10
2023-04-26T20:23:07.597Z,3.30
2023-04-26T20:25:53.079Z,3.22
2023-04-26T20:28:39.982Z,3.35
2023-04-26T20:31:25.670Z,2.60
2023-04-26T20:34:11.745Z,2.50
2023-04-26T20:36:57.045Z,2.45
2023-04-26T20:39:42.848Z,2.65
2023-04-26T20:42:28.534Z,3.50
2023-04-26T20:45:14.278Z,2.65
2023-04-26T20:47:59.463Z,3.70
2023-04-26T20:50:44.884Z,3.30
2023-04-26T20:53:31.037Z,2.65
2023-04-26T20:56:16.306Z,2.90
2023-04-26T20:59:01.799Z,2.40
2023-04-26T21:01:47.270Z,2.30
2023-04-26T21:04:32.786Z,2.10
2023-04-26T21:07:18.416Z,2.17
2023-04-26T21:10:04.137Z,2.45
2023-04-26T21:12:49.906Z,2.20
2023-04-26T21:15:35.301Z,2.95
2023-04-26T21:18:20.884Z,2.70
2023-04-26T21:21:06.420Z,2.80
2023-04-26T21:23:51.792Z,2.90
2023-04-26T21:26:37.373Z,2.40
2023-04-26T21:29:22.834Z,2.65
2023-04-26T21:32:08.052Z,2.58
2023-04-26T21:34:53.395Z,2.58
2023-04-26T21:37:39.371Z,2.50
2023-04-26T21:40:25.000Z,2.30
2023-04-26T21:43:10.058Z,2.40
2023-04-26T21:45:58.661Z,2.30
2023-04-26T21:48:44.564Z,2.20
2023-04-26T21:51:29.902Z,2.58
2023-04-26T21:54:15.471Z,2.22
2023-04-26T21:57:01.474Z,2.08
2023-04-26T21:59:46.874Z,2.20
2023-04-26T22:02:32.456Z,1.70
2023-04-26T22:05:17.656Z,2.28
2023-04-26T22:08:03.311Z,2.28
2023-04-26T22:10:48.783Z,2.20
2023-04-26T22:13:34.188Z,1.95
2023-04-26T22:16:19.581Z,2.03
2023-04-26T22:19:05.301Z,2.30
2023-04-26T22:21:50.659Z,2.10
2023-04-26T22:24:35.784Z,2.33
2023-04-26T22:27:21.342Z,2.67
2023-04-26T22:30:22.916Z,2.35
2023-04-26T22:33:10.966Z,2.10
2023-04-26T22:35:58.022Z,2.58
2023-04-26T22:38:43.635Z,2.17
2023-04-26T22:41:29.030Z,2.00
2023-04-26T22:44:14.974Z,1.85
2023-04-26T22:47:00.627Z,1.80
2023-04-26T22:49:45.798Z,1.63
2023-04-26T22:52:32.230Z,2.60
2023-04-26T22:55:18.092Z,2.28
2023-04-26T22:58:03.846Z,2.30
2023-04-26T23:00:49.385Z,2.65
2023-04-26T23:03:38.029Z,2.40
2023-04-26T23:06:23.681Z,2.20
2023-04-26T23:09:09.280Z,2.83
2023-04-26T23:11:54.951Z,2.50
2023-04-26T23:14:40.400Z,2.33
2023-04-26T23:17:26.786Z,2.17
2023-04-26T23:20:12.697Z,2.28
2023-04-26T23:22:57.987Z,1.98
2023-04-26T23:25:43.598Z,2.10
2023-04-26T23:28:28.854Z,2.03
2023-04-26T23:31:14.441Z,2.00
2023-04-26T23:33:59.857Z,2.13
2023-04-26T23:36:45.409Z,1.90
2023-04-26T23:39:30.676Z,1.90
2023-04-26T23:42:16.161Z,2.70
2023-04-26T23:45:01.445Z,2.00
2023-04-26T23:47:47.408Z,2.22
2023-04-26T23:50:32.880Z,1.95
2023-04-26T23:53:18.447Z,1.90
2023-04-26T23:56:04.169Z,1.98
2023-04-26T23:58:49.493Z,2.08
